Time;durP1;ratioP1;P1;durP2;ratioP2;P2;SDS_P1;SDS_P2;PMS_P1;PMS_P2;Temp;Humidity;BMP_temperature;BMP_pressure;BME280_temperature;BME280_humidity;BME280_pressure;Samples;Min_cycle;Max_cycle;Signal;HPM_P1;HPM_P2
2024/04/02 00:01:53;;;;;;;1.20;0.82;;;17.90;56.60;;;;;;5853020;24;20210;-84
2024/04/02 00:04:27;;;;;;;0.57;0.57;;;17.90;56.80;;;;;;5807831;24;20171;-84
2024/04/02 00:07:06;;;;;;;0.70;0.70;;;17.80;56.90;;;;;;5798595;24;20591;-84
2024/04/02 00:10:04;;;;;;;1.13;0.70;;;17.80;57.00;;;;;;5777094;24;20172;-85
2024/04/02 00:13:07;;;;;;;1.50;0.80;;;17.90;57.00;;;;;;5741621;24;20170;-85
2024/04/02 00:15:45;;;;;;;0.70;0.70;;;17.80;56.70;;;;;;5769426;24;20165;-84
2024/04/02 00:18:52;;;;;;;0.88;0.80;;;17.80;56.80;;;;;;5751434;25;20244;-85
2024/04/02 00:21:30;;;;;;;0.70;0.70;;;17.90;56.80;;;;;;5773236;24;20192;-84
2024/04/02 00:24:22;;;;;;;1.45;0.70;;;17.80;56.90;;;;;;5777137;24;20283;-84
2024/04/02 00:27:24;;;;;;;0.68;0.60;;;17.80;56.70;;;;;;5781385;24;20198;-84
2024/04/02 00:30:02;;;;;;;0.80;0.70;;;17.80;57.10;;;;;;5795611;24;20169;-84
2024/04/02 00:32:27;;;;;;;0.70;0.70;;;17.80;57.00;;;;;;5801154;24;20172;-85
2024/04/02 00:34:54;;;;;;;0.63;0.63;;;17.70;57.00;;;;;;5803336;24;20188;-84
2024/04/02 00:37:54;;;;;;;0.73;0.73;;;17.80;57.60;;;;;;5825679;24;20242;-84
2024/04/02 00:40:36;;;;;;;0.60;0.60;;;17.80;57.00;;;;;;5765768;24;20164;-84
2024/04/02 00:43:45;;;;;;;;;;;;;;;;;;;;;
2024/04/02 00:46:27;;;;;;;1.30;0.73;;;17.90;57.20;;;;;;5846507;24;20668;-84
2024/04/02 00:49:04;;;;;;;1.00;0.73;;;17.80;56.70;;;;;;5781414;24;20227;-84
2024/04/02 00:51:39;;;;;;;0.60;0.57;;;17.80;56.70;;;;;;5802036;24;20164;-84
2024/04/02 00:55:38;;;;;;;1.35;0.70;;;17.80;57.00;;;;;;5778500;24;20267;-84
2024/04/02 00:58:11;;;;;;;0.50;0.50;;;17.80;57.00;;;;;;5746190;24;20195;-85
2024/04/02 01:00:41;;;;;;;0.50;0.50;;;17.80;56.90;;;;;;5698684;25;20186;-85
2024/04/02 01:03:38;;;;;;;0.75;0.70;;;17.80;57.10;;;;;;5702219;25;20161;-84
2024/04/02 01:06:14;;;;;;;0.93;0.77;;;17.80;57.10;;;;;;5769893;24;20236;-85
2024/04/02 01:09:19;;;;;;;0.73;0.73;;;17.70;57.10;;;;;;5750222;25;20183;-85
2024/04/02 01:12:11;;;;;;;1.27;0.80;;;17.70;57.10;;;;;;5705022;25;20166;-85
2024/04/02 01:14:43;;;;;;;0.65;0.60;;;17.70;57.30;;;;;;5725003;25;20174;-85
2024/04/02 01:17:30;;;;;;;0.70;0.70;;;17.70;57.00;;;;;;5703005;25;20201;-85
2024/04/02 01:23:22;;;;;;;1.33;0.70;;;17.70;57.10;;;;;;5659824;25;20175;-85
2024/04/02 01:25:52;;;;;;;0.70;0.60;;;17.70;57.00;;;;;;5673636;25;20175;-84
2024/04/02 01:28:34;;;;;;;0.70;0.70;;;17.70;57.30;;;;;;5649879;25;20169;-84
2024/04/02 01:31:29;;;;;;;0.80;0.80;;;17.70;57.20;;;;;;5679763;25;20162;-84
2024/04/02 01:33:57;;;;;;;0.60;0.60;;;17.70;57.10;;;;;;5714256;25;20195;-85
2024/04/02 01:36:34;;;;;;;0.60;0.60;;;17.70;57.10;;;;;;5678888;25;20158;-84
2024/04/02 01:39:18;;;;;;;;;;;;;;;;;;;;;
2024/04/02 01:42:07;;;;;;;0.73;0.68;;;17.70;57.10;;;;;;5775201;24;20232;-84
2024/04/02 01:44:52;;;;;;;0.70;0.70;;;17.70;57.00;;;;;;5760159;24;20178;-84
2024/04/02 01:47:40;;;;;;;0.73;0.73;;;17.70;57.00;;;;;;5728754;25;20161;-85
2024/04/02 01:50:33;;;;;;;0.65;0.65;;;17.70;57.10;;;;;;5728119;25;20165;-84
2024/04/02 01:53:08;;;;;;;1.98;0.90;;;17.70;57.10;;;;;;5706973;25;20245;-85
2024/04/02 01:55:47;;;;;;;0.85;0.70;;;17.70;57.30;;;;;;5751080;24;20161;-84
2024/04/02 01:58:45;;;;;;;0.60;0.60;;;17.60;57.20;;;;;;5825103;24;20162;-84
2024/04/02 02:01:24;;;;;;;0.70;0.70;;;17.70;57.20;;;;;;5801947;24;20196;-84
2024/04/02 02:03:59;;;;;;;0.80;0.70;;;17.70;57.10;;;;;;5809511;24;20196;-84
2024/04/02 02:06:28;;;;;;;1.10;0.75;;;17.70;57.00;;;;;;5875950;24;20191;-84
2024/04/02 02:09:01;;;;;;;1.15;0.90;;;17.60;57.00;;;;;;5858740;24;20155;-85
2024/04/02 02:12:23;;;;;;;;;;;;;;;;;;;;;
2024/04/02 02:15:07;;;;;;;1.38;0.98;;;17.70;57.10;;;;;;5869745;24;20173;-85
2024/04/02 02:20:55;;;;;;;0.80;0.80;;;17.60;57.30;;;;;;5844151;24;20170;-84
2024/04/02 02:23:45;;;;;;;1.20;0.90;;;17.60;57.20;;;;;;5871794;24;20183;-85
2024/04/02 02:26:49;;;;;;;1.23;0.80;;;17.60;57.20;;;;;;5846991;24;20174;-84
2024/04/02 02:29:52;;;;;;;0.80;0.70;;;17.60;57.20;;;;;;5713614;25;20245;-83
2024/04/02 02:32:48;;;;;;;1.42;0.80;;;17.60;57.20;;;;;;5697899;25;20252;-85
2024/04/02 02:36:04;;;;;;;1.00;0.90;;;17.60;57.20;;;;;;5707465;25;20319;-84
2024/04/02 02:38:48;;;;;;;0.80;0.80;;;17.60;57.60;;;;;;5683372;25;20616;-84
2024/04/02 02:41:17;;;;;;;0.95;0.77;;;17.60;57.10;;;;;;5697105;25;20216;-84
2024/04/02 02:44:03;;;;;;;;;;;;;;;;;;;;;
2024/04/02 02:47:07;;;;;;;1.00;0.90;;;17.60;57.00;;;;;;5672743;25;20187;-84
2024/04/02 02:50:00;;;;;;;1.25;0.70;;;17.70;56.90;;;;;;5601084;25;20169;-84
2024/04/02 02:53:06;;;;;;;1.00;0.90;;;17.60;57.10;;;;;;5599458;25;20185;-84
2024/04/02 02:55:31;;;;;;;0.90;0.80;;;17.60;57.10;;;;;;5660164;25;20187;-84
2024/04/02 02:58:13;;;;;;;1.42;1.00;;;17.60;57.00;;;;;;5697927;25;20163;-84
2024/04/02 03:00:49;;;;;;;1.13;1.02;;;17.60;57.10;;;;;;5661554;25;20170;-85
2024/04/02 03:03:28;;;;;;;1.08;0.98;;;17.60;57.20;;;;;;5700444;25;20307;-84
2024/04/02 03:06:02;;;;;;;0.95;0.88;;;17.60;57.10;;;;;;5777587;24;20235;-85
2024/04/02 03:08:48;;;;;;;1.23;0.90;;;17.60;57.00;;;;;;5803522;24;20219;-84
2024/04/02 03:11:24;;;;;;;1.17;1.00;;;17.60;57.10;;;;;;5795176;24;20163;-84
2024/04/02 03:14:23;;;;;;;1.38;0.90;;;17.60;57.20;;;;;;5818788;24;20166;-84
2024/04/02 03:16:55;;;;;;;1.00;0.90;;;17.50;57.20;;;;;;5835230;24;20190;-86
2024/04/02 03:19:31;;;;;;;1.00;0.90;;;17.60;57.30;;;;;;5816052;24;20162;-84
2024/04/02 03:22:24;;;;;;;1.30;1.08;;;17.60;57.20;;;;;;5861520;24;20201;-85
2024/04/02 03:25:12;;;;;;;1.23;0.93;;;17.60;57.20;;;;;;5860740;24;20159;-84
2024/04/02 03:27:56;;;;;;;0.95;0.80;;;17.60;57.10;;;;;;5802868;24;20266;-84
2024/04/02 03:30:53;;;;;;;;;;;;;;;;;;;;;
2024/04/02 03:33:39;;;;;;;1.20;1.10;;;17.60;57.00;;;;;;5843369;24;20186;-85
2024/04/02 03:36:08;;;;;;;1.02;0.90;;;17.60;56.70;;;;;;5808386;24;20171;-84
2024/04/02 03:39:03;;;;;;;0.93;0.88;;;17.60;56.80;;;;;;5813724;24;20234;-85
2024/04/02 03:41:55;;;;;;;0.95;0.80;;;17.60;56.90;;;;;;5775935;24;20211;-84
2024/04/02 03:44:35;;;;;;;0.80;0.80;;;17.60;56.70;;;;;;5732943;25;20693;-84
2024/04/02 03:47:08;;;;;;;0.70;0.70;;;17.60;56.90;;;;;;5726536;25;20484;-84
2024/04/02 03:50:09;;;;;;;1.30;1.10;;;17.60;57.00;;;;;;5704884;25;20169;-84
2024/04/02 03:52:40;;;;;;;0.80;0.80;;;17.60;57.00;;;;;;5657590;25;20168;-84
2024/04/02 03:55:36;;;;;;;1.13;1.00;;;17.60;57.00;;;;;;5650351;25;20167;-84
2024/04/02 03:58:50;;;;;;;1.05;0.88;;;17.50;57.00;;;;;;5650236;25;20160;-84
2024/04/02 04:04:23;;;;;;;1.30;1.10;;;17.50;57.00;;;;;;5674449;25;20676;-83
2024/04/02 04:07:03;;;;;;;1.17;0.90;;;17.50;56.90;;;;;;5673923;25;20168;-84
2024/04/02 04:09:37;;;;;;;2.25;1.00;;;17.50;57.00;;;;;;5667890;25;20178;-84
2024/04/02 04:12:16;;;;;;;1.25;1.00;;;17.50;57.20;;;;;;5690725;25;20162;-84
2024/04/02 04:15:19;;;;;;;;;;;;;;;;;;;;;
2024/04/02 04:18:30;;;;;;;0.80;0.80;;;17.50;57.10;;;;;;5774850;24;20188;-84
2024/04/02 04:21:37;;;;;;;;;;;;;;;;;;;;;
2024/04/02 04:24:06;;;;;;;1.13;0.98;;;17.50;56.90;;;;;;5767840;24;20176;-84
2024/04/02 04:26:32;;;;;;;1.42;1.00;;;17.50;57.00;;;;;;5746890;24;20201;-84
2024/04/02 04:29:01;;;;;;;1.10;1.00;;;17.50;56.90;;;;;;5767517;24;20159;-83
2024/04/02 04:31:45;;;;;;;1.23;1.13;;;17.50;57.00;;;;;;5720575;25;20193;-84
2024/04/02 04:34:38;;;;;;;1.23;1.00;;;17.50;57.00;;;;;;5741366;25;20191;-84
2024/04/02 04:37:15;;;;;;;0.98;0.90;;;17.50;56.90;;;;;;5689642;25;20251;-84
2024/04/02 04:39:46;;;;;;;1.10;1.00;;;17.50;57.10;;;;;;5771137;24;20172;-83
2024/04/02 04:42:12;;;;;;;2.50;1.10;;;17.50;57.10;;;;;;5793204;24;20213;-84
2024/04/02 04:44:43;;;;;;;1.40;1.00;;;17.40;57.10;;;;;;5744808;25;20165;-84
2024/04/02 04:47:44;;;;;;;0.90;0.90;;;17.50;57.20;;;;;;5745130;24;20169;-84
2024/04/02 04:50:09;;;;;;;1.40;1.02;;;17.50;57.20;;;;;;5725452;25;20661;-84
2024/04/02 04:53:02;;;;;;;1.00;0.90;;;17.50;57.00;;;;;;5746651;25;20182;-84
2024/04/02 04:55:37;;;;;;;0.80;0.80;;;17.50;57.00;;;;;;5741390;24;20162;-84
2024/04/02 04:58:07;;;;;;;1.50;1.17;;;17.50;57.00;;;;;;5746394;25;20165;-84
2024/04/02 05:00:43;;;;;;;1.05;0.90;;;17.50;57.00;;;;;;5708364;25;20170;-84
2024/04/02 05:03:11;;;;;;;1.33;0.90;;;17.50;57.10;;;;;;5744602;25;20166;-83
2024/04/02 05:05:50;;;;;;;1.48;1.20;;;17.50;57.00;;;;;;5750410;25;20169;-84
2024/04/02 05:08:26;;;;;;;1.08;0.93;;;17.50;56.90;;;;;;5772673;24;20173;-84
2024/04/02 05:10:52;;;;;;;1.20;1.10;;;17.50;57.00;;;;;;5751857;24;20245;-86
2024/04/02 05:13:18;;;;;;;1.10;1.00;;;17.40;56.90;;;;;;5814759;24;20161;-82
2024/04/02 05:15:44;;;;;;;1.27;0.90;;;17.50;56.40;;;;;;5923998;24;20169;-82
2024/04/02 05:18:10;;;;;;;0.95;0.93;;;17.60;56.20;;;;;;5961858;24;20612;-82
2024/04/02 05:20:44;;;;;;;1.00;0.90;;;17.60;56.20;;;;;;5962069;24;20150;-85
2024/04/02 05:23:12;;;;;;;1.10;1.00;;;17.70;56.20;;;;;;5970311;23;20154;-83
2024/04/02 05:25:38;;;;;;;1.20;1.00;;;17.60;56.20;;;;;;6017399;23;20518;-82
2024/04/02 05:28:05;;;;;;;1.20;1.10;;;17.70;56.20;;;;;;6061453;23;20201;-82
2024/04/02 05:30:31;;;;;;;1.20;1.10;;;17.70;56.20;;;;;;5999207;23;20283;-82
2024/04/02 05:32:57;;;;;;;1.50;0.90;;;17.60;56.20;;;;;;5998205;23;20157;-83
2024/04/02 05:35:23;;;;;;;1.23;0.90;;;17.60;56.80;;;;;;6024048;23;20141;-83
2024/04/02 05:37:51;;;;;;;1.65;1.17;;;17.70;56.30;;;;;;6023662;23;20158;-82
2024/04/02 05:40:20;;;;;;;1.27;1.00;;;17.70;56.30;;;;;;6023151;23;20149;-83
2024/04/02 05:42:46;;;;;;;0.90;0.90;;;17.70;56.30;;;;;;6009353;23;20197;-82
2024/04/02 05:45:18;;;;;;;1.38;1.17;;;17.70;56.30;;;;;;6071900;23;20156;-83
2024/04/02 05:47:44;;;;;;;2.22;1.10;;;17.70;56.40;;;;;;6032236;23;20495;-83
2024/04/02 05:50:11;;;;;;;1.35;1.05;;;17.60;56.40;;;;;;6058036;23;20148;-82
2024/04/02 05:52:37;;;;;;;1.15;1.05;;;17.60;56.30;;;;;;6081812;23;20159;-83
2024/04/02 05:55:03;;;;;;;1.60;1.10;;;17.60;56.10;;;;;;6056905;23;20156;-82
2024/04/02 05:57:31;;;;;;;0.90;0.82;;;17.70;56.20;;;;;;6056385;23;20184;-82
2024/04/02 05:59:57;;;;;;;1.50;1.00;;;17.70;56.00;;;;;;6080456;23;20591;-82
2024/04/02 06:02:25;;;;;;;1.42;1.15;;;17.70;56.10;;;;;;6056720;23;20214;-83
2024/04/02 06:04:51;;;;;;;1.30;1.20;;;17.70;56.40;;;;;;6079364;23;20146;-82
2024/04/02 06:07:18;;;;;;;1.20;1.10;;;17.60;56.50;;;;;;6080180;23;20151;-82
2024/04/02 06:09:55;;;;;;;1.70;1.10;;;17.50;56.20;;;;;;6058268;23;20227;-83
2024/04/02 06:12:31;;;;;;;1.10;1.05;;;17.60;56.10;;;;;;6074882;23;20211;-83
2024/04/02 06:14:58;;;;;;;1.20;1.10;;;17.70;56.10;;;;;;6081615;23;20156;-83
2024/04/02 06:17:34;;;;;;;1.25;0.95;;;17.60;55.90;;;;;;6106846;23;20188;-84
2024/04/02 06:20:05;;;;;;;1.95;1.30;;;17.70;56.00;;;;;;6049378;23;20163;-83
2024/04/02 06:22:32;;;;;;;1.90;1.25;;;17.70;55.60;;;;;;6049830;23;20216;-83
2024/04/02 06:24:59;;;;;;;1.30;1.10;;;17.70;55.50;;;;;;6026510;23;20176;-83
2024/04/02 06:27:26;;;;;;;1.23;1.10;;;17.70;55.90;;;;;;6023577;23;20161;-82
2024/04/02 06:29:56;;;;;;;1.35;1.23;;;17.70;55.50;;;;;;6024008;23;20377;-82
2024/04/02 06:32:23;;;;;;;1.33;1.20;;;17.80;55.70;;;;;;6025583;23;20145;-82
2024/04/02 06:34:50;;;;;;;1.33;0.98;;;17.70;55.90;;;;;;6001336;23;20234;-83
2024/04/02 06:37:16;;;;;;;2.13;1.30;;;17.70;55.50;;;;;;6048866;23;20220;-82
2024/04/02 06:39:42;;;;;;;1.20;0.95;;;17.60;55.90;;;;;;6009660;23;20223;-83
2024/04/02 06:42:09;;;;;;;1.10;0.90;;;17.60;56.00;;;;;;5971005;23;20231;-82
2024/04/02 06:44:35;;;;;;;1.23;1.13;;;17.60;56.00;;;;;;5946461;23;20178;-82
2024/04/02 06:47:02;;;;;;;1.25;1.00;;;17.60;56.20;;;;;;5992585;23;20151;-82
2024/04/02 06:49:29;;;;;;;1.15;1.05;;;17.60;56.10;;;;;;5968855;23;20167;-83
2024/04/02 06:51:56;;;;;;;1.30;1.20;;;17.60;55.80;;;;;;6020357;23;20165;-83
2024/04/02 06:54:22;;;;;;;3.40;0.98;;;17.60;55.80;;;;;;6048954;23;20157;-82
2024/04/02 06:56:51;;;;;;;1.15;1.05;;;17.60;56.00;;;;;;6072911;23;20148;-83
2024/04/02 06:59:18;;;;;;;1.30;1.20;;;17.60;56.20;;;;;;6049042;23;20159;-82
2024/04/02 07:01:45;;;;;;;1.27;1.15;;;17.60;56.00;;;;;;6049599;23;20232;-83
2024/04/02 07:04:10;;;;;;;1.23;1.10;;;17.70;55.30;;;;;;6079129;23;20137;-82
2024/04/02 07:06:38;;;;;;;1.08;0.82;;;17.80;54.80;;;;;;6080168;23;20148;-82
2024/04/02 07:09:08;;;;;;;1.27;1.15;;;17.80;55.30;;;;;;6104622;23;20153;-82
2024/04/02 07:11:34;;;;;;;2.50;1.02;;;17.70;55.10;;;;;;6132938;23;20182;-83
2024/04/02 07:14:07;;;;;;;1.05;0.93;;;17.80;55.10;;;;;;6115398;23;20151;-83
2024/04/02 07:16:37;;;;;;;1.30;1.00;;;17.80;55.40;;;;;;6080784;23;20157;-83
2024/04/02 07:19:03;;;;;;;1.00;0.90;;;17.70;55.10;;;;;;6056541;23;20253;-83
2024/04/02 07:21:29;;;;;;;0.93;0.90;;;17.80;55.00;;;;;;6030259;23;20200;-83
2024/04/02 07:24:00;;;;;;;2.60;1.20;;;17.90;55.00;;;;;;6077577;23;20152;-83
2024/04/02 07:26:31;;;;;;;1.52;1.27;;;17.80;55.20;;;;;;6077468;23;20161;-83
2024/04/02 07:28:57;;;;;;;0.95;0.80;;;17.80;55.00;;;;;;6028684;23;20253;-82
2024/04/02 07:31:25;;;;;;;0.90;0.90;;;17.90;54.80;;;;;;6077781;23;20526;-83
2024/04/02 07:33:51;;;;;;;1.13;1.00;;;17.90;55.10;;;;;;6054915;23;20137;-83
2024/04/02 07:36:18;;;;;;;1.45;1.30;;;17.90;54.40;;;;;;6030296;23;20215;-82
2024/04/02 07:38:43;;;;;;;1.40;1.10;;;17.90;55.10;;;;;;6078585;23;20167;-83
2024/04/02 07:41:11;;;;;;;1.08;1.00;;;17.80;54.60;;;;;;6078687;23;20184;-82
2024/04/02 07:43:37;;;;;;;1.08;0.98;;;17.90;54.50;;;;;;6029597;23;20645;-83
2024/04/02 07:46:08;;;;;;;1.15;1.00;;;17.90;54.80;;;;;;6049818;23;20154;-82
2024/04/02 07:48:39;;;;;;;1.00;0.85;;;17.90;54.30;;;;;;6083636;23;20206;-82
2024/04/02 07:51:13;;;;;;;1.17;1.08;;;17.80;55.10;;;;;;6012302;23;20600;-83
2024/04/02 07:53:39;;;;;;;1.42;1.00;;;17.90;55.10;;;;;;5963982;24;20163;-83
2024/04/02 07:56:08;;;;;;;1.35;1.00;;;17.90;55.10;;;;;;5942096;24;20159;-82
2024/04/02 07:58:40;;;;;;;1.48;1.00;;;17.80;55.30;;;;;;5909888;24;20241;-83
2024/04/02 08:01:16;;;;;;;1.05;1.00;;;17.80;55.40;;;;;;5828506;24;20592;-83
2024/04/02 08:03:42;;;;;;;1.58;0.98;;;17.70;55.20;;;;;;5807767;24;20166;-82
2024/04/02 08:06:11;;;;;;;1.45;1.27;;;17.70;55.30;;;;;;5806232;24;20155;-82
2024/04/02 08:08:44;;;;;;;1.40;1.30;;;17.70;55.30;;;;;;5807182;24;20558;-82
2024/04/02 08:11:11;;;;;;;1.20;1.10;;;17.80;55.50;;;;;;5783980;24;20169;-82
2024/04/02 08:13:44;;;;;;;1.10;1.00;;;17.70;55.80;;;;;;5805040;24;20224;-82
2024/04/02 08:16:10;;;;;;;1.15;1.00;;;17.80;55.10;;;;;;5804527;24;20190;-81
2024/04/02 08:18:38;;;;;;;1.20;1.10;;;17.80;55.10;;;;;;5805430;24;20537;-82
2024/04/02 08:21:28;;;;;;;1.10;0.98;;;17.80;55.10;;;;;;5806435;24;20175;-82
2024/04/02 08:23:55;;;;;;;1.00;0.90;;;17.90;55.30;;;;;;5811464;24;20685;-81
2024/04/02 08:26:27;;;;;;;2.20;1.00;;;17.80;55.20;;;;;;5876598;24;20183;-82
2024/04/02 08:28:59;;;;;;;0.88;0.88;;;17.80;55.20;;;;;;5850235;24;20155;-82
2024/04/02 08:31:32;;;;;;;1.42;1.13;;;17.80;55.30;;;;;;5849908;24;20222;-82
2024/04/02 08:34:13;;;;;;;1.00;0.93;;;17.80;55.30;;;;;;5851175;24;20249;-82
2024/04/02 08:36:59;;;;;;;0.90;0.80;;;17.80;55.50;;;;;;5846717;24;20161;-83
2024/04/02 08:39:24;;;;;;;1.15;0.98;;;17.80;55.10;;;;;;5908851;24;20167;-83
2024/04/02 08:41:53;;;;;;;1.10;0.98;;;17.80;55.20;;;;;;5889925;24;20173;-83
2024/04/02 08:44:22;;;;;;;1.08;0.98;;;17.80;55.30;;;;;;5903886;23;20541;-83
2024/04/02 08:46:50;;;;;;;2.05;1.20;;;17.80;55.40;;;;;;5936483;24;20180;-83
2024/04/02 08:49:38;;;;;;;1.40;1.23;;;17.80;55.30;;;;;;5937718;24;20239;-83
2024/04/02 08:52:12;;;;;;;1.45;1.05;;;17.80;55.30;;;;;;5905251;24;20299;-82
2024/04/02 08:54:48;;;;;;;1.15;0.88;;;17.90;55.10;;;;;;5883756;24;20172;-82
2024/04/02 08:57:16;;;;;;;0.98;0.88;;;17.80;55.20;;;;;;5855931;24;20193;-82
2024/04/02 08:59:49;;;;;;;0.75;0.75;;;17.80;55.20;;;;;;5822703;24;20201;-81
2024/04/02 09:02:17;;;;;;;0.65;0.65;;;17.80;55.00;;;;;;5905937;24;20243;-82
2024/04/02 09:04:47;;;;;;;1.80;0.90;;;17.90;55.30;;;;;;5885304;24;20168;-82
2024/04/02 09:07:14;;;;;;;1.20;1.10;;;17.90;55.40;;;;;;5833240;24;20203;-83
2024/04/02 09:09:44;;;;;;;1.20;1.10;;;17.90;55.40;;;;;;5833143;24;20178;-83
2024/04/02 09:12:15;;;;;;;0.88;0.88;;;17.80;55.20;;;;;;5825670;24;20198;-83
2024/04/02 09:14:52;;;;;;;1.00;0.90;;;17.80;55.30;;;;;;5781434;24;20282;-83
2024/04/02 09:17:21;;;;;;;1.52;1.00;;;17.80;55.20;;;;;;5761119;24;20174;-82
2024/04/02 09:19:49;;;;;;;1.17;0.90;;;17.80;55.30;;;;;;5801396;24;20218;-82
2024/04/02 09:22:18;;;;;;;0.88;0.80;;;17.80;55.20;;;;;;5834563;24;20198;-82
2024/04/02 09:24:44;;;;;;;1.10;1.00;;;17.80;55.30;;;;;;5879635;24;20239;-83
2024/04/02 09:27:15;;;;;;;2.40;1.00;;;17.80;55.30;;;;;;5879574;24;20158;-83
2024/04/02 09:29:41;;;;;;;1.15;1.05;;;17.80;55.40;;;;;;5878388;24;20170;-83
2024/04/02 09:32:34;;;;;;;1.00;0.90;;;17.90;55.50;;;;;;5878570;24;20165;-83
2024/04/02 09:35:03;;;;;;;3.72;1.00;;;17.90;54.90;;;;;;5856679;24;20574;-83
2024/04/02 09:37:52;;;;;;;1.27;0.95;;;17.90;55.30;;;;;;5888318;24;20176;-84
2024/04/02 09:40:52;;;;;;;1.17;1.08;;;17.90;55.30;;;;;;5838450;24;20173;-83
2024/04/02 09:43:39;;;;;;;1.42;1.05;;;17.90;55.60;;;;;;5887175;24;20211;-82
2024/04/02 09:46:06;;;;;;;0.88;0.80;;;17.80;55.50;;;;;;5962797;24;20144;-82
2024/04/02 09:48:38;;;;;;;0.95;0.85;;;17.90;55.50;;;;;;5882917;24;20167;-83
2024/04/02 09:51:06;;;;;;;1.10;1.00;;;17.90;54.30;;;;;;5859878;24;20291;-82
2024/04/02 09:53:37;;;;;;;1.17;0.90;;;17.90;54.40;;;;;;5860443;24;20161;-82
2024/04/02 09:56:07;;;;;;;1.20;1.10;;;18.00;54.50;;;;;;5859090;24;20640;-81
2024/04/02 09:58:37;;;;;;;1.13;0.93;;;18.00;54.50;;;;;;5858304;24;20594;-82
2024/04/02 10:01:03;;;;;;;1.25;0.80;;;18.00;54.40;;;;;;5857076;24;20181;-81
2024/04/02 10:03:31;;;;;;;1.00;0.90;;;18.10;54.30;;;;;;5914814;24;20196;-83
2024/04/02 10:06:05;;;;;;;0.98;0.98;;;18.00;54.40;;;;;;5959118;24;20223;-81
2024/04/02 10:08:32;;;;;;;1.35;1.10;;;18.00;54.20;;;;;;5961909;24;20250;-81
2024/04/02 10:10:58;;;;;;;1.00;0.85;;;18.00;54.20;;;;;;5990315;23;20254;-81
2024/04/02 10:13:42;;;;;;;1.08;0.98;;;18.10;53.80;;;;;;5995038;23;20158;-81
2024/04/02 10:16:09;;;;;;;4.18;1.05;;;18.00;54.70;;;;;;5996842;23;20161;-82
2024/04/02 10:18:43;;;;;;;1.33;1.00;;;18.00;54.60;;;;;;5994298;23;20676;-82
2024/04/02 10:21:10;;;;;;;1.45;1.05;;;18.00;53.50;;;;;;5998610;23;20212;-82
2024/04/02 10:23:36;;;;;;;1.20;1.05;;;18.00;54.30;;;;;;5999560;23;20134;-81
2024/04/02 10:26:02;;;;;;;1.50;1.15;;;18.10;53.80;;;;;;6021794;23;20150;-82
2024/04/02 10:28:31;;;;;;;1.20;0.80;;;18.10;54.10;;;;;;5998231;23;20154;-82
2024/04/02 10:31:15;;;;;;;2.13;1.00;;;18.10;54.20;;;;;;5995714;23;20146;-84
2024/04/02 10:33:43;;;;;;;1.20;0.93;;;18.10;54.30;;;;;;6081118;23;20153;-82
2024/04/02 10:36:11;;;;;;;1.40;0.95;;;18.00;54.40;;;;;;6105401;23;20148;-83
2024/04/02 10:38:37;;;;;;;1.63;0.80;;;18.10;54.10;;;;;;6105416;23;20156;-82
2024/04/02 10:41:04;;;;;;;0.90;0.90;;;18.10;54.20;;;;;;6080828;23;20222;-82
2024/04/02 10:43:39;;;;;;;0.90;0.90;;;18.10;54.40;;;;;;6104752;23;20198;-82
2024/04/02 10:46:07;;;;;;;0.95;0.90;;;18.10;54.30;;;;;;6105421;23;20175;-82
2024/04/02 10:48:33;;;;;;;1.10;1.00;;;18.10;54.30;;;;;;6081230;23;20214;-82
2024/04/02 10:50:59;;;;;;;1.00;0.90;;;18.10;54.20;;;;;;6079371;23;20620;-81
2024/04/02 10:53:27;;;;;;;1.10;1.00;;;18.10;54.50;;;;;;6080533;23;20166;-81
2024/04/02 10:56:02;;;;;;;0.80;0.80;;;18.10;54.70;;;;;;6082582;23;20243;-83
2024/04/02 10:58:28;;;;;;;0.80;0.80;;;18.00;54.40;;;;;;6087978;23;20189;-83
2024/04/02 11:02:08;;;;;;;1.10;1.00;;;18.00;55.20;;;;;;6080597;23;20160;-82
2024/04/02 11:04:39;;;;;;;1.10;1.00;;;18.00;54.30;;;;;;6012439;23;20511;-83
2024/04/02 11:07:10;;;;;;;1.30;0.93;;;18.00;54.80;;;;;;5990602;23;20155;-83
2024/04/02 11:09:36;;;;;;;1.90;0.82;;;18.00;55.00;;;;;;6013607;23;20221;-81
2024/04/02 11:12:04;;;;;;;1.25;0.90;;;18.00;54.40;;;;;;5988589;23;20625;-82
2024/04/02 11:14:35;;;;;;;1.27;0.80;;;18.00;54.50;;;;;;5962369;23;20171;-83
2024/04/02 11:17:03;;;;;;;1.05;0.95;;;17.90;54.80;;;;;;6023082;23;20162;-83
2024/04/02 11:19:29;;;;;;;1.00;0.90;;;18.00;54.60;;;;;;5991303;23;20158;-81
2024/04/02 11:25:04;;;;;;;1.20;1.10;;;17.90;54.80;;;;;;6021163;23;20161;-83
2024/04/02 11:27:31;;;;;;;1.10;1.00;;;18.00;54.90;;;;;;6023810;23;20154;-82
2024/04/02 11:29:57;;;;;;;1.08;0.90;;;17.90;55.10;;;;;;5995041;23;20189;-83
2024/04/02 11:32:27;;;;;;;1.25;0.90;;;17.90;54.80;;;;;;6021020;23;20218;-82
2024/04/02 11:35:03;;;;;;;1.30;1.10;;;18.00;54.60;;;;;;6049319;23;20164;-82
2024/04/02 11:37:32;;;;;;;1.10;1.00;;;17.90;54.90;;;;;;6024685;23;20157;-83
2024/04/02 11:39:58;;;;;;;0.88;0.88;;;18.00;54.60;;;;;;6068444;23;20180;-84
2024/04/02 11:42:26;;;;;;;0.80;0.80;;;18.00;54.90;;;;;;6074309;23;20209;-83
2024/04/02 11:45:00;;;;;;;0.90;0.85;;;17.90;54.80;;;;;;6118141;23;20170;-82
2024/04/02 11:47:34;;;;;;;0.98;0.80;;;18.00;54.60;;;;;;6115948;23;20151;-83
2024/04/02 11:50:04;;;;;;;1.00;0.77;;;18.00;54.70;;;;;;6090461;23;20159;-84
2024/04/02 11:52:34;;;;;;;1.05;0.88;;;18.00;54.40;;;;;;6122515;23;20152;-83
2024/04/02 11:55:00;;;;;;;0.95;0.80;;;18.00;54.40;;;;;;6167825;23;20222;-83
2024/04/02 12:00:17;;;;;;;1.27;1.02;;;18.00;54.60;;;;;;6114574;23;20156;-82
2024/04/02 12:02:48;;;;;;;1.45;0.90;;;18.00;55.00;;;;;;6113846;23;20183;-82
2024/04/02 12:05:15;;;;;;;0.85;0.85;;;17.90;54.40;;;;;;6085987;23;20599;-83
2024/04/02 12:07:45;;;;;;;1.23;1.02;;;18.00;54.90;;;;;;6111788;23;20140;-82
2024/04/02 12:10:12;;;;;;;0.70;0.70;;;18.00;54.80;;;;;;6137076;23;20136;-82
2024/04/02 12:12:40;;;;;;;0.98;0.90;;;18.00;54.80;;;;;;6113302;23;20662;-82
2024/04/02 12:15:08;;;;;;;1.55;0.90;;;17.90;55.10;;;;;;6112157;23;20168;-82
2024/04/02 12:17:34;;;;;;;0.73;0.73;;;17.90;55.30;;;;;;6087554;23;20148;-82
2024/04/02 12:20:01;;;;;;;1.00;0.90;;;17.90;55.00;;;;;;6087937;23;20630;-82
2024/04/02 12:22:30;;;;;;;0.90;0.90;;;17.90;55.40;;;;;;6111554;23;20209;-82
2024/04/02 12:24:56;;;;;;;1.10;0.93;;;17.90;55.10;;;;;;6110739;23;20141;-83
2024/04/02 12:27:25;;;;;;;0.90;0.80;;;17.90;55.10;;;;;;6111650;23;20141;-82
2024/04/02 12:29:55;;;;;;;0.90;0.90;;;18.00;55.00;;;;;;6089049;23;20156;-81
2024/04/02 12:32:21;;;;;;;1.17;0.90;;;18.00;55.20;;;;;;6085791;23;20176;-82
2024/04/02 12:34:51;;;;;;;1.05;0.93;;;17.90;54.90;;;;;;6133673;23;20208;-81
2024/04/02 12:37:19;;;;;;;0.75;0.65;;;17.90;55.10;;;;;;6084985;23;20183;-81
2024/04/02 12:39:47;;;;;;;1.63;0.80;;;17.90;54.80;;;;;;6083642;23;20159;-81
2024/04/02 12:42:15;;;;;;;0.68;0.65;;;18.00;54.90;;;;;;6058316;23;20216;-80
2024/04/02 12:44:42;;;;;;;1.00;0.90;;;18.00;55.20;;;;;;6107085;23;20170;-81
2024/04/02 12:47:09;;;;;;;1.38;1.00;;;18.00;54.80;;;;;;6142308;23;20203;-82
2024/04/02 12:49:38;;;;;;;0.93;0.80;;;18.00;54.70;;;;;;6142536;23;20192;-82
2024/04/02 12:52:05;;;;;;;0.90;0.90;;;18.00;54.90;;;;;;6119319;23;20155;-82
2024/04/02 12:54:31;;;;;;;0.90;0.90;;;18.00;54.70;;;;;;6116595;23;20575;-83
2024/04/02 12:57:02;;;;;;;1.88;0.85;;;17.90;54.80;;;;;;6115932;23;20162;-82
2024/04/02 12:59:29;;;;;;;0.90;0.70;;;18.00;54.60;;;;;;6090787;23;20210;-82
2024/04/02 13:01:55;;;;;;;1.20;0.65;;;18.00;54.40;;;;;;6115828;23;20183;-81
2024/04/02 13:04:22;;;;;;;1.40;0.93;;;18.00;55.00;;;;;;6139090;23;20190;-81
2024/04/02 13:06:52;;;;;;;1.20;1.10;;;18.00;54.80;;;;;;6114382;23;20639;-82
2024/04/02 13:09:19;;;;;;;0.82;0.80;;;17.90;54.70;;;;;;6112557;23;20233;-81
2024/04/02 13:11:45;;;;;;;0.90;0.68;;;18.00;55.00;;;;;;6114583;23;20254;-81
2024/04/02 13:14:17;;;;;;;1.08;0.90;;;18.00;55.00;;;;;;6115573;23;20552;-81
2024/04/02 13:16:44;;;;;;;0.90;0.88;;;18.00;54.40;;;;;;6115525;23;20155;-83
2024/04/02 13:19:10;;;;;;;1.05;0.95;;;18.00;54.50;;;;;;6116163;23;20162;-82
2024/04/02 13:21:37;;;;;;;1.33;1.00;;;18.00;54.90;;;;;;6112697;23;20175;-82
2024/04/02 13:24:03;;;;;;;1.27;0.80;;;18.10;55.00;;;;;;6134128;23;20136;-82
2024/04/02 13:26:30;;;;;;;0.60;0.60;;;18.00;54.80;;;;;;6139007;23;20147;-82
2024/04/02 13:28:58;;;;;;;1.33;1.00;;;18.10;54.60;;;;;;6138717;23;20136;-82
2024/04/02 13:31:24;;;;;;;0.82;0.80;;;18.10;54.10;;;;;;6139225;23;20132;-82
2024/04/02 13:33:51;;;;;;;1.10;1.00;;;18.00;54.70;;;;;;6140792;23;20181;-82
2024/04/02 13:36:17;;;;;;;0.70;0.70;;;18.00;54.60;;;;;;6118239;23;20154;-82
2024/04/02 13:38:49;;;;;;;0.70;0.70;;;18.00;54.30;;;;;;6115791;23;20559;-82
2024/04/02 13:41:17;;;;;;;0.70;0.70;;;18.00;54.40;;;;;;6116165;23;20623;-82
2024/04/02 13:43:46;;;;;;;0.88;0.88;;;18.00;55.10;;;;;;6053720;23;20197;-82
2024/04/02 13:46:17;;;;;;;0.80;0.80;;;18.00;55.30;;;;;;6028077;23;20156;-84
2024/04/02 13:48:46;;;;;;;1.00;0.90;;;18.00;55.30;;;;;;6031111;23;20153;-83
2024/04/02 13:51:14;;;;;;;1.23;0.80;;;18.00;54.80;;;;;;6026743;23;20169;-82